Anthony, Texas
Current Conditions -  °F | °C
As of 4:55 AM on Monday 20 Oct 2014 (Local Time) from KBIF Reporting Station
Broken Clouds Broken Clouds  
Wind Chill: 57°   Ceiling: 20000
Heat Index: 57°   Visibility: 10mi
Dew Point: 54°   Wind: 6mph
Humidity: 88%   Direction: 30°NNE
Pressure: 30.07"   Gusts: NA
Location:  32°N, 106.61°W
Report Text: KBIF 201055Z 03005KT 10SM FEW030 FEW080 SCT110 BKN200 14/12 A3007 RMK A0A2 SLP127 T1440122
Loading
Personal Weather Stations






























Interactive Weather Map
Tropical Storm Tracking
New forecast layout! Learn more

10-Day Weather Forecast

Advertisements
Track Severe Weather on mobile